Terminal Aerodrome Forecast
Issued by NWS Burlington, VT

Home | Current Version | Previous Version | Text Only | Print | Product List | Glossary On
Versions: 1 2 3 4 5 6 7 8 9 10 11 12 13 14 15 16 17 18 19
154
FTUS41 KBTV 012323
TAFBTV
TAF
KBTV 012323Z 0200/0224 15005KT P6SM -SHRA SCT040 OVC070
     FM020130 20006KT P6SM BKN050
     FM020800 22008KT P6SM BKN025
     FM021100 25013G23KT P6SM BKN035
     FM021800 30014G28KT P6SM SCT040=

USA.gov is the U.S. government's official web portal to all federal, state and local government web resources and services.